Time;durP1;ratioP1;P1;durP2;ratioP2;P2;SDS_P1;SDS_P2;PMS_P1;PMS_P2;Temp;Humidity;BMP_temperature;BMP_pressure;BME280_temperature;BME280_humidity;BME280_pressure;Samples;Min_cycle;Max_cycle;Signal;HPM_P1;HPM_P2
2022/05/05 00:01:41;;;;;;;17.87;16.07;;;11.40;99.90;;;;;;5038638;28;20464;-68
2022/05/05 00:04:09;;;;;;;18.90;17.00;;;11.50;99.90;;;;;;5039785;28;20495;-68
2022/05/05 00:06:35;;;;;;;18.07;16.50;;;11.60;99.90;;;;;;5036496;28;20467;-67
2022/05/05 00:09:03;;;;;;;18.33;16.40;;;11.60;99.90;;;;;;5039189;28;20479;-68
2022/05/05 00:14:27;;;;;;;19.53;16.13;;;11.70;99.90;;;;;;5036430;28;20474;-68
2022/05/05 00:16:57;;;;;;;17.87;16.03;;;11.60;99.90;;;;;;5038780;28;20562;-68
2022/05/05 00:19:25;;;;;;;22.43;16.37;;;11.50;99.90;;;;;;5038069;28;20463;-68
2022/05/05 00:21:52;;;;;;;18.70;16.90;;;11.60;99.90;;;;;;5034121;28;20483;-68
2022/05/05 00:24:19;;;;;;;16.90;15.30;;;11.80;99.90;;;;;;5040704;28;20828;-68
2022/05/05 00:26:47;;;;;;;18.70;16.70;;;11.80;99.90;;;;;;5039714;28;20468;-68
2022/05/05 00:29:15;;;;;;;18.90;17.10;;;11.80;99.90;;;;;;5033557;28;20464;-68
2022/05/05 00:31:42;;;;;;;17.40;15.77;;;11.90;99.90;;;;;;5037671;28;20465;-68
2022/05/05 00:34:10;;;;;;;18.30;16.50;;;11.90;99.90;;;;;;5033882;28;20465;-68
2022/05/05 00:36:37;;;;;;;19.80;16.20;;;11.90;99.90;;;;;;5044574;28;20523;-68
2022/05/05 00:39:05;;;;;;;22.60;16.73;;;11.80;99.90;;;;;;5037061;28;20464;-68
2022/05/05 00:41:33;;;;;;;19.70;17.70;;;11.80;99.90;;;;;;5039277;28;20465;-67
2022/05/05 00:44:00;;;;;;;20.80;16.60;;;11.80;99.90;;;;;;5037805;28;20526;-69
2022/05/05 00:46:29;;;;;;;24.97;18.03;;;11.90;99.90;;;;;;5037260;28;20526;-68
2022/05/05 00:48:58;;;;;;;17.57;16.03;;;11.90;99.90;;;;;;5037969;28;20460;-68
2022/05/05 00:51:25;;;;;;;19.40;17.33;;;11.90;99.90;;;;;;5032046;28;20465;-68
2022/05/05 00:53:52;;;;;;;17.73;16.23;;;11.90;99.90;;;;;;5029177;28;20472;-68
2022/05/05 00:56:20;;;;;;;45.13;18.93;;;12.00;99.90;;;;;;5033784;28;20515;-68
2022/05/05 00:58:49;;;;;;;18.90;17.20;;;12.00;99.90;;;;;;5036775;28;20474;-68
2022/05/05 01:01:20;;;;;;;19.40;17.60;;;11.90;99.90;;;;;;5033032;28;20554;-68
2022/05/05 01:03:51;;;;;;;19.37;17.47;;;11.90;99.90;;;;;;5041792;28;20989;-68
2022/05/05 01:06:19;;;;;;;19.70;17.57;;;11.80;99.90;;;;;;5040139;28;20765;-68
2022/05/05 01:08:46;;;;;;;25.50;17.83;;;11.80;99.90;;;;;;5028289;28;21056;-68
2022/05/05 01:11:13;;;;;;;20.13;18.07;;;11.70;99.90;;;;;;5038597;28;20474;-68
2022/05/05 01:13:42;;;;;;;19.03;17.20;;;11.70;99.90;;;;;;5032809;28;20970;-68
2022/05/05 01:16:10;;;;;;;19.10;17.20;;;11.60;99.90;;;;;;5035472;28;20492;-68
2022/05/05 01:18:37;;;;;;;19.97;18.07;;;11.80;99.90;;;;;;5043283;28;20943;-69
2022/05/05 01:21:05;;;;;;;20.23;17.37;;;11.80;99.90;;;;;;5035250;28;20822;-68
2022/05/05 01:23:33;;;;;;;18.97;17.07;;;11.70;99.90;;;;;;5036606;28;20960;-68
2022/05/05 01:28:46;;;;;;;19.87;15.93;;;11.80;99.90;;;;;;5038136;28;20456;-68
2022/05/05 01:31:13;;;;;;;19.73;16.07;;;11.80;99.90;;;;;;5033596;28;20502;-68
2022/05/05 01:33:40;;;;;;;20.70;16.77;;;11.80;99.90;;;;;;5029717;28;20464;-68
2022/05/05 01:36:08;;;;;;;19.87;16.87;;;11.80;99.90;;;;;;5040353;28;20842;-68
2022/05/05 01:38:37;;;;;;;22.70;18.00;;;11.70;99.90;;;;;;5037194;28;20561;-67
2022/05/05 01:41:05;;;;;;;19.37;16.50;;;11.70;99.90;;;;;;5038722;28;20551;-67
2022/05/05 01:43:33;;;;;;;19.10;17.37;;;11.60;99.90;;;;;;5032676;28;20989;-68
2022/05/05 01:46:01;;;;;;;25.63;18.97;;;11.60;99.90;;;;;;5039579;28;20456;-68
2022/05/05 01:48:28;;;;;;;19.80;17.40;;;11.60;99.90;;;;;;5038210;28;20542;-68
2022/05/05 01:50:54;;;;;;;18.13;16.40;;;11.60;99.90;;;;;;5037192;28;20890;-68
2022/05/05 01:53:21;;;;;;;20.17;18.13;;;11.50;99.90;;;;;;5034129;28;20989;-68
2022/05/05 01:55:50;;;;;;;20.57;18.73;;;11.40;99.90;;;;;;5032915;28;20486;-68
2022/05/05 01:58:17;;;;;;;18.20;16.60;;;11.50;99.90;;;;;;5030503;28;20838;-68
2022/05/05 02:00:44;;;;;;;23.00;17.90;;;11.50;99.90;;;;;;5036604;28;21004;-68
2022/05/05 02:03:14;;;;;;;18.90;16.87;;;11.60;99.90;;;;;;5036037;28;20471;-68
2022/05/05 02:05:43;;;;;;;19.60;17.07;;;11.50;99.90;;;;;;5036564;28;20903;-68
2022/05/05 02:08:10;;;;;;;18.83;16.70;;;11.60;99.90;;;;;;5036537;28;20483;-68
2022/05/05 02:10:37;;;;;;;20.80;18.57;;;11.60;99.90;;;;;;5032793;28;20771;-67
2022/05/05 02:13:09;;;;;;;21.23;17.27;;;11.60;99.90;;;;;;5038091;28;20471;-68
2022/05/05 02:15:36;;;;;;;18.37;16.50;;;11.60;99.90;;;;;;5034352;28;20500;-68
2022/05/05 02:18:12;;;;;;;21.40;19.27;;;11.60;99.90;;;;;;5033628;28;20464;-67
2022/05/05 02:20:40;;;;;;;20.33;17.70;;;11.50;99.90;;;;;;5028278;28;20456;-68
2022/05/05 02:23:08;;;;;;;20.13;17.40;;;11.50;99.90;;;;;;5032231;28;20461;-68
2022/05/05 02:25:36;;;;;;;24.47;18.97;;;11.30;99.90;;;;;;5032986;28;20459;-67
2022/05/05 02:28:05;;;;;;;19.53;17.13;;;11.20;99.90;;;;;;5035117;28;20832;-67
2022/05/05 02:30:32;;;;;;;21.23;18.13;;;11.20;99.90;;;;;;5037934;28;20481;-68
2022/05/05 02:32:59;;;;;;;21.63;18.70;;;11.20;99.90;;;;;;5028273;28;20465;-67
2022/05/05 02:35:26;;;;;;;22.90;18.20;;;11.20;99.90;;;;;;5033200;28;20456;-68
2022/05/05 02:40:39;;;;;;;22.40;18.87;;;11.00;99.90;;;;;;5032718;28;20610;-69
2022/05/05 02:43:22;;;;;;;21.60;17.80;;;11.00;99.90;;;;;;5034797;28;20471;-68
2022/05/05 02:45:48;;;;;;;27.30;19.93;;;11.00;99.90;;;;;;5038398;28;20594;-68
2022/05/05 02:48:15;;;;;;;26.70;21.97;;;10.90;99.90;;;;;;5034394;28;20459;-68
2022/05/05 02:50:42;;;;;;;21.20;19.00;;;10.90;99.90;;;;;;5035098;28;20879;-67
2022/05/05 02:55:49;;;;;;;18.70;16.83;;;10.80;99.90;;;;;;5037450;28;20480;-67
2022/05/05 02:58:18;;;;;;;19.37;17.53;;;10.80;99.90;;;;;;5036682;28;20997;-68
2022/05/05 03:00:46;;;;;;;20.53;18.13;;;10.80;99.90;;;;;;5034667;28;20719;-68
2022/05/05 03:03:13;;;;;;;19.33;17.53;;;10.80;99.90;;;;;;5035472;28;20522;-68
2022/05/05 03:05:40;;;;;;;20.70;18.60;;;10.60;99.90;;;;;;5032654;28;20498;-68
2022/05/05 03:08:08;;;;;;;19.20;17.27;;;10.60;99.90;;;;;;5027974;28;20470;-68
2022/05/05 03:10:35;;;;;;;21.47;19.27;;;10.60;99.90;;;;;;5032379;28;20463;-68
2022/05/05 03:13:01;;;;;;;20.57;18.37;;;10.60;99.90;;;;;;5034942;28;20471;-68
2022/05/05 03:15:32;;;;;;;21.43;18.50;;;10.50;99.90;;;;;;5034644;28;20462;-68
2022/05/05 03:17:59;;;;;;;19.93;17.93;;;10.50;99.90;;;;;;5039201;28;20459;-68
2022/05/05 03:20:26;;;;;;;19.70;17.70;;;10.50;99.90;;;;;;5031138;28;20459;-67
2022/05/05 03:22:53;;;;;;;19.57;17.57;;;10.40;99.90;;;;;;5034577;28;20466;-68
2022/05/05 03:25:20;;;;;;;20.20;18.20;;;10.40;99.90;;;;;;5031127;28;20821;-67
2022/05/05 03:27:47;;;;;;;21.73;19.43;;;10.30;99.90;;;;;;5028871;28;20460;-67
2022/05/05 03:30:14;;;;;;;22.33;20.23;;;10.10;99.90;;;;;;5036103;28;20457;-67
2022/05/05 03:32:43;;;;;;;22.53;19.20;;;10.10;99.90;;;;;;5039644;28;20534;-68
2022/05/05 03:35:10;;;;;;;22.93;19.40;;;10.00;99.90;;;;;;5039328;28;20464;-67
2022/05/05 03:37:37;;;;;;;20.50;18.50;;;9.90;99.90;;;;;;5042403;28;20503;-67
2022/05/05 03:40:06;;;;;;;21.73;19.50;;;9.90;99.90;;;;;;5030914;28;20463;-68
2022/05/05 03:42:34;;;;;;;25.57;19.03;;;9.70;99.90;;;;;;5036447;28;20827;-67
2022/05/05 03:45:00;;;;;;;26.47;19.43;;;9.60;99.90;;;;;;5033971;28;20453;-67
2022/05/05 03:47:28;;;;;;;24.90;18.97;;;9.50;99.90;;;;;;5040310;28;20527;-67
2022/05/05 03:49:56;;;;;;;22.70;20.33;;;9.40;99.90;;;;;;5036113;28;20463;-67
2022/05/05 03:52:24;;;;;;;22.60;20.30;;;9.30;99.90;;;;;;5037770;28;20486;-67
2022/05/05 03:54:52;;;;;;;23.33;20.43;;;9.20;99.90;;;;;;5041095;28;20512;-68
2022/05/05 03:57:19;;;;;;;21.40;19.37;;;9.10;99.90;;;;;;5038935;28;20515;-67
2022/05/05 03:59:46;;;;;;;26.97;23.77;;;9.00;99.90;;;;;;5039974;28;20486;-67
2022/05/05 04:02:13;;;;;;;26.27;21.13;;;9.10;99.90;;;;;;5029101;28;20505;-68
2022/05/05 04:04:40;;;;;;;24.33;19.97;;;9.20;99.90;;;;;;5013245;28;20490;-67
2022/05/05 04:07:08;;;;;;;28.47;22.17;;;9.10;99.90;;;;;;5012522;28;20892;-68
2022/05/05 04:09:35;;;;;;;24.00;21.07;;;9.10;99.90;;;;;;5012511;28;20830;-67
2022/05/05 04:12:02;;;;;;;25.17;20.60;;;9.10;99.90;;;;;;5011487;28;20936;-68
2022/05/05 04:14:29;;;;;;;24.50;20.90;;;9.10;99.90;;;;;;5011712;28;20463;-68
2022/05/05 04:16:56;;;;;;;28.73;22.47;;;8.90;99.90;;;;;;5012141;28;20486;-70
2022/05/05 04:19:23;;;;;;;34.43;22.13;;;8.90;99.90;;;;;;5012101;28;20476;-69
2022/05/05 04:21:50;;;;;;;30.93;22.30;;;8.90;99.90;;;;;;5010748;28;20469;-70
2022/05/05 04:24:18;;;;;;;28.33;23.27;;;8.90;99.90;;;;;;5011298;28;21254;-70
2022/05/05 04:26:46;;;;;;;30.53;23.73;;;8.80;99.90;;;;;;5011191;28;21068;-69
2022/05/05 04:29:13;;;;;;;30.40;21.80;;;8.70;99.90;;;;;;5011579;28;20835;-70
2022/05/05 04:31:42;;;;;;;26.50;21.60;;;8.60;99.90;;;;;;5010067;28;20469;-68
2022/05/05 04:34:10;;;;;;;35.83;24.27;;;8.60;99.90;;;;;;5009400;28;20959;-68
2022/05/05 04:36:37;;;;;;;28.53;21.23;;;8.50;99.90;;;;;;5009575;28;20562;-67
2022/05/05 04:39:05;;;;;;;32.37;25.43;;;8.40;99.90;;;;;;5011145;28;20908;-68
2022/05/05 04:41:33;;;;;;;35.27;25.93;;;8.40;99.90;;;;;;5011632;28;20480;-69
2022/05/05 04:44:00;;;;;;;32.37;25.20;;;8.40;99.90;;;;;;5012574;28;20465;-70
2022/05/05 04:46:27;;;;;;;37.53;25.00;;;8.40;99.90;;;;;;5009441;28;21244;-69
2022/05/05 04:48:55;;;;;;;34.27;25.50;;;8.40;99.90;;;;;;5009483;28;20583;-68
2022/05/05 04:51:22;;;;;;;30.90;23.80;;;8.50;99.90;;;;;;5010180;28;20462;-70
2022/05/05 04:53:50;;;;;;;27.73;23.83;;;8.40;99.90;;;;;;5011509;28;20459;-69
2022/05/05 04:56:17;;;;;;;31.43;26.87;;;8.50;99.90;;;;;;5010762;28;20519;-70
2022/05/05 04:58:45;;;;;;;33.60;24.93;;;8.60;99.90;;;;;;5010932;28;20477;-69
2022/05/05 05:01:12;;;;;;;28.33;24.30;;;8.70;99.90;;;;;;5010868;28;20462;-69
2022/05/05 05:03:39;;;;;;;40.30;25.37;;;8.70;99.90;;;;;;5009592;28;21014;-67
2022/05/05 05:06:10;;;;;;;30.27;25.70;;;8.70;99.90;;;;;;5008636;28;20457;-68
2022/05/05 05:08:38;;;;;;;30.83;24.83;;;8.70;99.90;;;;;;5009635;28;20469;-69
2022/05/05 05:11:05;;;;;;;30.77;24.50;;;8.90;99.90;;;;;;5009003;28;20577;-68
2022/05/05 05:13:32;;;;;;;29.97;23.90;;;8.90;99.90;;;;;;5009503;28;21597;-68
2022/05/05 05:16:00;;;;;;;36.10;25.77;;;9.00;99.90;;;;;;5009355;28;20516;-68
2022/05/05 05:18:27;;;;;;;33.00;24.07;;;9.10;99.90;;;;;;5009946;28;20491;-68
2022/05/05 05:20:54;;;;;;;44.67;26.30;;;9.10;99.90;;;;;;5009210;28;20461;-67
2022/05/05 05:23:21;;;;;;;29.57;24.43;;;9.10;99.90;;;;;;5010492;28;20472;-67
2022/05/05 05:25:47;;;;;;;34.37;26.30;;;9.30;99.90;;;;;;5010894;28;20473;-68
2022/05/05 05:28:14;;;;;;;38.47;26.03;;;9.40;99.90;;;;;;5010303;28;20469;-68
2022/05/05 05:30:41;;;;;;;39.43;26.47;;;9.50;99.90;;;;;;5010184;28;20472;-68
2022/05/05 05:33:10;;;;;;;32.20;25.90;;;9.50;99.90;;;;;;5009927;28;20822;-68
2022/05/05 05:35:37;;;;;;;33.53;25.33;;;9.60;99.90;;;;;;5009431;28;20549;-68
2022/05/05 05:38:04;;;;;;;33.87;22.90;;;9.70;99.90;;;;;;5010884;28;20496;-67
2022/05/05 05:40:30;;;;;;;31.63;24.10;;;9.90;99.90;;;;;;5010515;28;21061;-68
2022/05/05 05:42:58;;;;;;;34.30;25.33;;;10.00;99.90;;;;;;5010024;28;21185;-67
2022/05/05 05:45:24;;;;;;;26.13;22.80;;;10.20;99.90;;;;;;5008996;28;20467;-68
2022/05/05 05:47:52;;;;;;;42.67;25.20;;;10.40;99.90;;;;;;5007935;28;20464;-68
2022/05/05 05:50:20;;;;;;;33.87;25.33;;;10.60;99.90;;;;;;5008420;28;20543;-67
2022/05/05 05:52:47;;;;;;;33.87;25.70;;;10.90;99.90;;;;;;5009299;28;20460;-68
2022/05/05 05:55:15;;;;;;;31.70;26.03;;;11.10;99.90;;;;;;5007835;28;20517;-68
2022/05/05 05:57:42;;;;;;;33.57;24.13;;;11.40;99.90;;;;;;5008129;28;20481;-68
2022/05/05 06:00:10;;;;;;;28.03;25.07;;;11.60;99.90;;;;;;5008570;28;21162;-68
2022/05/05 06:05:22;;;;;;;34.90;26.07;;;12.00;99.90;;;;;;5006529;28;20498;-68
2022/05/05 06:07:49;;;;;;;36.37;24.10;;;12.20;99.90;;;;;;5006205;28;20920;-68
2022/05/05 06:10:19;;;;;;;30.40;25.23;;;12.30;99.90;;;;;;5007094;28;20883;-68
2022/05/05 06:12:45;;;;;;;33.37;24.83;;;12.40;99.90;;;;;;5006261;28;21360;-68
2022/05/05 06:15:12;;;;;;;29.27;24.77;;;12.60;99.90;;;;;;5006772;28;20499;-68
2022/05/05 06:17:40;;;;;;;29.07;25.00;;;12.70;99.90;;;;;;5006184;28;21042;-68
2022/05/05 06:20:08;;;;;;;28.53;24.50;;;12.50;99.90;;;;;;5006673;28;20480;-68
2022/05/05 06:22:37;;;;;;;30.83;26.60;;;12.50;99.90;;;;;;5005362;28;20472;-68
2022/05/05 06:25:05;;;;;;;34.57;27.13;;;12.70;99.90;;;;;;5006404;28;20469;-67
2022/05/05 06:27:32;;;;;;;29.30;26.03;;;12.40;99.90;;;;;;5005781;28;20448;-69
2022/05/05 06:30:00;;;;;;;38.00;27.33;;;12.60;99.90;;;;;;5005953;28;21004;-68
2022/05/05 06:32:27;;;;;;;30.57;27.27;;;12.90;99.90;;;;;;4995910;28;20460;-68
2022/05/05 06:34:55;;;;;;;34.30;25.77;;;13.20;99.90;;;;;;4996176;28;20465;-68
2022/05/05 06:37:22;;;;;;;27.47;24.63;;;13.00;99.90;;;;;;5001388;28;20588;-68
2022/05/05 06:39:51;;;;;;;29.67;25.97;;;13.20;99.90;;;;;;5000743;28;20517;-68
2022/05/05 06:42:18;;;;;;;29.63;25.67;;;13.10;99.90;;;;;;5000468;28;20479;-71
2022/05/05 06:44:45;;;;;;;29.27;26.17;;;13.40;99.90;;;;;;4999370;28;20898;-68
2022/05/05 06:47:12;;;;;;;34.80;26.43;;;13.20;99.90;;;;;;4999676;28;20482;-68
2022/05/05 06:49:38;;;;;;;30.67;27.07;;;13.30;99.90;;;;;;5001209;28;20511;-67
2022/05/05 06:52:06;;;;;;;31.03;27.87;;;13.50;99.90;;;;;;5001451;28;20830;-68
2022/05/05 06:54:33;;;;;;;31.13;26.07;;;13.80;99.90;;;;;;4999856;28;20472;-68
2022/05/05 06:57:01;;;;;;;29.37;25.47;;;13.90;99.90;;;;;;5002888;28;20956;-68
2022/05/05 06:59:28;;;;;;;30.53;24.97;;;14.30;99.90;;;;;;5026417;28;20460;-67
2022/05/05 07:01:57;;;;;;;31.10;24.87;;;14.70;99.90;;;;;;5025905;28;20473;-68
2022/05/05 07:07:13;;;;;;;34.50;26.63;;;14.70;99.90;;;;;;5000804;28;20480;-68
2022/05/05 07:12:26;;;;;;;28.40;25.40;;;14.80;99.90;;;;;;5000380;28;20847;-68
2022/05/05 07:14:53;;;;;;;30.40;27.17;;;14.80;99.90;;;;;;4999440;28;20499;-67
2022/05/05 07:17:19;;;;;;;29.30;26.30;;;15.00;99.90;;;;;;5000730;28;21043;-68
2022/05/05 07:19:46;;;;;;;33.70;24.90;;;14.90;99.90;;;;;;4998629;28;21245;-67
2022/05/05 07:22:13;;;;;;;27.47;24.47;;;15.30;99.90;;;;;;5000192;28;20461;-68
2022/05/05 07:24:40;;;;;;;27.17;24.47;;;15.60;99.90;;;;;;5000400;28;20908;-67
2022/05/05 07:27:07;;;;;;;30.20;24.57;;;15.20;99.90;;;;;;4999771;28;20476;-67
2022/05/05 07:29:35;;;;;;;26.57;23.23;;;15.50;99.90;;;;;;4999979;28;20461;-68
2022/05/05 07:32:03;;;;;;;36.57;24.53;;;15.40;99.90;;;;;;5000674;28;20948;-68
2022/05/05 07:34:30;;;;;;;27.70;22.77;;;15.90;99.90;;;;;;5000939;28;20466;-68
2022/05/05 07:36:57;;;;;;;26.30;23.23;;;16.50;99.90;;;;;;5003481;28;20473;-69
2022/05/05 07:39:24;;;;;;;26.83;23.40;;;16.60;99.90;;;;;;5002844;28;21097;-67
2022/05/05 07:41:51;;;;;;;29.50;23.97;;;16.70;99.90;;;;;;5002281;28;20472;-68
2022/05/05 07:44:17;;;;;;;25.57;21.73;;;16.80;99.90;;;;;;5002305;28;20461;-68
2022/05/05 07:46:46;;;;;;;26.07;23.20;;;16.50;99.90;;;;;;5002505;28;20728;-68
2022/05/05 07:49:13;;;;;;;25.93;23.40;;;16.40;99.90;;;;;;5003086;28;20459;-67
2022/05/05 07:51:39;;;;;;;26.60;24.00;;;16.80;99.90;;;;;;5002849;28;20467;-67
2022/05/05 07:56:51;;;;;;;25.70;23.07;;;17.10;99.90;;;;;;5002990;28;21179;-68
2022/05/05 07:59:19;;;;;;;25.17;22.83;;;17.70;99.90;;;;;;5002230;28;20594;-68
2022/05/05 08:01:48;;;;;;;26.83;24.00;;;17.30;99.90;;;;;;5001695;28;20703;-67
2022/05/05 08:04:15;;;;;;;24.83;22.40;;;17.00;99.90;;;;;;5002238;28;21164;-68
2022/05/05 08:06:41;;;;;;;24.60;22.50;;;17.70;99.90;;;;;;4999546;28;20540;-68
2022/05/05 08:09:09;;;;;;;25.63;23.00;;;17.90;99.90;;;;;;5029584;28;20464;-68
2022/05/05 08:11:37;;;;;;;23.90;21.80;;;17.90;99.90;;;;;;5027943;28;20465;-68
2022/05/05 08:14:04;;;;;;;24.07;22.00;;;18.00;99.90;;;;;;4978641;28;21212;-68
2022/05/05 08:16:31;;;;;;;24.63;22.23;;;18.20;99.90;;;;;;5005443;28;20472;-68
2022/05/05 08:18:59;;;;;;;26.63;23.70;;;18.20;99.90;;;;;;5005859;28;20815;-68
2022/05/05 08:21:26;;;;;;;34.03;23.43;;;18.40;99.90;;;;;;5003740;28;20471;-68
2022/05/05 08:28:28;;;;;;;30.13;24.13;;;18.10;99.90;;;;;;5002901;28;20464;-68
2022/05/05 08:29:26;;;;;;;25.70;23.17;;;17.90;99.90;;;;;;5003785;28;20467;-68
2022/05/05 08:31:53;;;;;;;25.67;23.23;;;18.30;99.90;;;;;;5004187;28;20580;-68
2022/05/05 08:34:21;;;;;;;26.43;23.87;;;18.90;99.90;;;;;;5003769;28;20461;-68
2022/05/05 08:36:48;;;;;;;25.67;22.93;;;19.80;99.90;;;;;;5005182;28;20464;-68
2022/05/05 08:39:15;;;;;;;24.10;21.70;;;20.10;99.20;;;;;;5005421;28;21042;-68
2022/05/05 08:41:42;;;;;;;22.93;20.93;;;20.20;99.80;;;;;;5005668;28;20500;-68
2022/05/05 08:44:09;;;;;;;23.67;21.33;;;20.60;96.80;;;;;;5006058;28;20967;-69
2022/05/05 08:46:37;;;;;;;24.30;22.10;;;21.20;94.90;;;;;;5003173;28;21114;-69
2022/05/05 08:49:06;;;;;;;26.30;23.03;;;21.40;94.40;;;;;;5003861;28;20461;-69
2022/05/05 08:51:42;;;;;;;26.47;20.57;;;21.50;92.80;;;;;;5003797;28;20490;-68
2022/05/05 08:54:12;;;;;;;24.27;22.27;;;21.40;92.50;;;;;;5005127;28;21054;-69
2022/05/05 08:56:39;;;;;;;25.67;22.87;;;21.90;92.80;;;;;;5004046;28;20502;-69
2022/05/05 08:59:07;;;;;;;28.87;22.63;;;22.50;92.20;;;;;;5005144;28;20507;-69
2022/05/05 09:01:38;;;;;;;23.03;21.13;;;22.30;90.70;;;;;;5005349;28;20456;-69
2022/05/05 09:04:06;;;;;;;22.60;20.90;;;22.40;90.20;;;;;;5004765;28;20527;-69
2022/05/05 09:06:44;;;;;;;24.07;21.67;;;22.90;86.80;;;;;;5004125;28;20465;-69
2022/05/05 09:09:28;;;;;;;24.77;22.53;;;22.50;86.80;;;;;;5004753;28;20495;-69
2022/05/05 09:12:09;;;;;;;25.10;22.60;;;22.20;86.70;;;;;;5005849;28;22440;-68
2022/05/05 09:14:38;;;;;;;24.30;21.90;;;22.70;88.90;;;;;;5005226;28;20591;-68
2022/05/05 09:17:07;;;;;;;23.50;21.10;;;23.00;86.20;;;;;;5004764;28;20619;-68
2022/05/05 09:19:38;;;;;;;24.23;22.03;;;22.90;82.60;;;;;;5005288;28;20489;-69
2022/05/05 09:22:08;;;;;;;24.47;21.90;;;23.00;80.10;;;;;;5004642;28;20456;-69
2022/05/05 09:24:40;;;;;;;24.17;20.87;;;22.70;78.40;;;;;;5004316;28;20460;-69
2022/05/05 09:27:25;;;;;;;23.87;21.37;;;22.80;78.30;;;;;;5004238;28;20883;-69
2022/05/05 09:30:03;;;;;;;23.87;21.33;;;23.50;75.10;;;;;;5005005;28;22440;-69
2022/05/05 09:32:32;;;;;;;23.90;21.43;;;24.70;73.60;;;;;;5004878;28;20894;-69
2022/05/05 09:35:02;;;;;;;26.03;23.30;;;24.30;69.40;;;;;;5004136;28;20749;-69
2022/05/05 09:37:31;;;;;;;24.10;22.10;;;24.60;69.50;;;;;;5004499;28;20464;-69
2022/05/05 09:39:59;;;;;;;25.57;22.87;;;24.60;68.00;;;;;;5005105;28;20590;-69
2022/05/05 09:42:37;;;;;;;25.43;22.17;;;24.00;68.60;;;;;;5003921;28;21081;-68
2022/05/05 09:45:19;;;;;;;25.90;23.23;;;23.30;69.70;;;;;;5003050;28;20473;-69
2022/05/05 09:47:46;;;;;;;23.70;21.70;;;22.50;68.20;;;;;;5004460;28;20547;-69
2022/05/05 09:50:14;;;;;;;25.17;22.70;;;22.20;70.80;;;;;;5004492;28;20479;-69
2022/05/05 09:58:16;;;;;;;24.53;22.03;;;21.80;71.30;;;;;;5004165;28;20510;-70
2022/05/05 10:01:00;;;;;;;27.00;24.50;;;22.90;70.40;;;;;;5003015;28;20459;-68
2022/05/05 10:06:22;;;;;;;23.37;21.27;;;23.30;69.30;;;;;;5001168;28;20675;-69
2022/05/05 10:08:53;;;;;;;23.87;21.67;;;23.30;70.00;;;;;;5003096;28;21405;-69
2022/05/05 10:11:22;;;;;;;25.43;22.90;;;22.30;68.80;;;;;;5002508;28;20523;-69
2022/05/05 10:14:04;;;;;;;23.77;21.77;;;21.40;68.60;;;;;;5001202;28;20485;-69
2022/05/05 10:16:32;;;;;;;32.40;22.50;;;22.20;68.30;;;;;;5002200;28;20466;-69
2022/05/05 10:18:59;;;;;;;23.50;21.33;;;22.30;67.20;;;;;;5003441;28;20503;-69
2022/05/05 10:21:38;;;;;;;23.80;21.90;;;22.40;67.80;;;;;;5003497;28;21032;-68
2022/05/05 10:24:13;;;;;;;26.37;20.63;;;22.10;70.30;;;;;;5004160;28;20967;-69
2022/05/05 10:26:40;;;;;;;23.27;21.00;;;21.00;71.50;;;;;;5003241;28;20553;-69
2022/05/05 10:29:34;;;;;;;22.30;20.50;;;20.90;71.40;;;;;;5004092;28;20472;-69
2022/05/05 10:32:06;;;;;;;20.10;18.37;;;20.90;71.70;;;;;;5003725;28;20496;-69
2022/05/05 10:34:34;;;;;;;21.50;19.60;;;21.10;72.50;;;;;;5002611;28;20599;-69
2022/05/05 10:37:05;;;;;;;20.50;18.30;;;21.40;71.60;;;;;;5002662;28;21019;-69
2022/05/05 10:39:45;;;;;;;20.77;18.97;;;21.90;72.60;;;;;;5003555;28;21089;-70
2022/05/05 10:42:14;;;;;;;19.53;17.50;;;22.10;71.70;;;;;;5003819;28;20807;-69
2022/05/05 10:45:12;;;;;;;19.87;18.00;;;22.50;69.20;;;;;;5003316;28;20464;-69
2022/05/05 10:48:19;;;;;;;20.43;18.40;;;22.50;68.30;;;;;;5003181;28;20479;-69
2022/05/05 10:50:53;;;;;;;19.13;17.53;;;23.40;67.60;;;;;;5003627;28;20930;-69
2022/05/05 10:53:45;;;;;;;18.20;17.00;;;23.80;66.40;;;;;;5003991;28;20990;-69
2022/05/05 10:56:30;;;;;;;18.03;16.67;;;23.60;65.80;;;;;;4987824;28;20563;-69
2022/05/05 10:59:03;;;;;;;19.97;18.17;;;23.40;65.40;;;;;;5003699;28;20487;-69
2022/05/05 11:01:33;;;;;;;21.03;19.33;;;23.80;66.20;;;;;;5003083;28;20471;-70
2022/05/05 11:04:28;;;;;;;21.27;19.17;;;24.70;67.50;;;;;;5006204;28;20543;-69
2022/05/05 11:10:46;;;;;;;21.07;19.10;;;25.30;60.70;;;;;;4999600;28;20473;-69
2022/05/05 11:13:36;;;;;;;21.60;19.60;;;25.60;60.90;;;;;;5000348;28;20460;-69
2022/05/05 11:22:12;;;;;;;21.90;20.00;;;26.40;57.50;;;;;;5018594;28;20893;-69
2022/05/05 11:24:41;;;;;;;21.60;19.80;;;27.50;56.30;;;;;;4999208;28;20963;-69
2022/05/05 11:27:12;;;;;;;23.47;21.37;;;28.30;54.70;;;;;;4998761;28;20473;-69
2022/05/05 11:29:39;;;;;;;27.53;20.73;;;27.80;55.40;;;;;;5014741;28;20465;-69
2022/05/05 11:32:09;;;;;;;21.97;20.37;;;27.10;55.30;;;;;;5002357;28;20470;-69
2022/05/05 11:34:36;;;;;;;22.40;20.63;;;26.20;55.00;;;;;;5001807;28;21050;-69
2022/05/05 11:37:05;;;;;;;21.73;19.80;;;26.10;55.30;;;;;;5003094;28;20496;-70
2022/05/05 11:39:33;;;;;;;20.90;19.00;;;26.30;56.70;;;;;;5002274;28;20497;-70
2022/05/05 11:42:02;;;;;;;20.87;19.27;;;26.50;54.10;;;;;;5002198;28;20835;-70
2022/05/05 11:44:30;;;;;;;22.10;20.17;;;26.60;55.50;;;;;;5001695;28;20456;-70
2022/05/05 11:46:58;;;;;;;21.87;20.03;;;26.40;54.30;;;;;;5001939;28;20804;-69
2022/05/05 11:49:32;;;;;;;20.23;18.63;;;26.70;53.40;;;;;;5022302;28;20521;-70
2022/05/05 11:51:59;;;;;;;20.77;19.27;;;27.10;53.40;;;;;;5028349;28;20568;-69
2022/05/05 11:54:28;;;;;;;21.20;19.53;;;27.90;53.00;;;;;;5038175;28;20466;-69
2022/05/05 11:56:56;;;;;;;22.07;20.17;;;27.60;52.70;;;;;;5029322;28;20855;-69
2022/05/05 12:02:11;;;;;;;21.80;19.90;;;28.40;50.80;;;;;;5005820;28;20514;-71
2022/05/05 12:04:42;;;;;;;22.97;21.17;;;28.00;51.50;;;;;;5003792;28;20500;-70
2022/05/05 12:07:11;;;;;;;22.33;20.47;;;28.80;49.70;;;;;;5004119;28;20465;-70
2022/05/05 12:09:39;;;;;;;21.97;20.17;;;29.40;48.10;;;;;;5005583;28;21184;-70
2022/05/05 12:12:10;;;;;;;23.13;21.13;;;29.60;47.70;;;;;;5006123;28;20464;-69
2022/05/05 12:14:42;;;;;;;23.93;21.47;;;29.60;50.00;;;;;;5024580;28;20468;-70
2022/05/05 12:17:12;;;;;;;24.87;22.50;;;29.20;48.50;;;;;;5030153;28;20468;-70
2022/05/05 12:19:52;;;;;;;24.03;22.07;;;28.50;47.70;;;;;;5009134;28;20511;-69
2022/05/05 12:22:27;;;;;;;22.80;20.93;;;27.60;47.80;;;;;;5005163;28;20460;-70
2022/05/05 12:24:54;;;;;;;24.40;21.97;;;26.70;50.00;;;;;;5005070;28;20475;-70
2022/05/05 12:27:25;;;;;;;22.60;20.27;;;27.70;49.60;;;;;;5005496;28;20499;-69
2022/05/05 12:29:52;;;;;;;22.40;20.80;;;27.60;49.50;;;;;;5005778;28;20472;-70
2022/05/05 12:32:21;;;;;;;21.50;19.80;;;28.00;48.50;;;;;;5005756;28;20517;-70
2022/05/05 12:34:48;;;;;;;20.70;19.20;;;28.30;47.80;;;;;;5005248;28;20653;-70
2022/05/05 12:37:16;;;;;;;21.50;19.73;;;28.10;46.70;;;;;;5005054;28;20554;-70
2022/05/05 12:39:51;;;;;;;22.33;20.27;;;28.50;46.90;;;;;;5005579;28;20491;-70
2022/05/05 12:42:18;;;;;;;21.27;19.57;;;28.20;48.00;;;;;;5005277;28;21010;-70
2022/05/05 12:44:46;;;;;;;22.00;20.00;;;28.20;46.60;;;;;;5004658;28;20751;-70
2022/05/05 12:47:13;;;;;;;21.93;20.10;;;28.70;48.60;;;;;;5003928;28;21012;-70
2022/05/05 12:49:45;;;;;;;22.87;21.07;;;29.00;46.80;;;;;;5005324;28;20472;-70
2022/05/05 12:59:36;;;;;;;21.20;19.60;;;29.20;46.30;;;;;;5005692;28;20471;-69
2022/05/05 13:00:28;;;;;;;19.30;18.00;;;27.30;47.60;;;;;;5004388;28;20546;-71
2022/05/05 13:02:55;;;;;;;18.73;17.23;;;26.70;49.00;;;;;;5004431;28;20468;-70
2022/05/05 13:05:25;;;;;;;20.60;18.77;;;26.90;49.40;;;;;;5003803;28;20491;-70
2022/05/05 13:07:51;;;;;;;20.10;18.13;;;27.30;48.60;;;;;;5004127;28;20466;-70
2022/05/05 13:10:18;;;;;;;22.23;20.00;;;27.90;47.10;;;;;;5004909;28;20507;-70
2022/05/05 13:12:45;;;;;;;19.40;18.10;;;28.40;47.40;;;;;;5015102;28;20471;-70
2022/05/05 13:15:12;;;;;;;21.33;19.70;;;29.20;45.80;;;;;;5026552;28;20910;-70
2022/05/05 13:17:39;;;;;;;21.07;19.07;;;30.60;43.00;;;;;;5012594;28;20571;-71
2022/05/05 13:20:07;;;;;;;20.70;18.97;;;30.30;44.10;;;;;;5005148;28;21083;-70
2022/05/05 13:22:35;;;;;;;21.27;19.63;;;29.50;44.30;;;;;;5004014;28;20448;-70
2022/05/05 13:25:02;;;;;;;22.20;20.40;;;29.60;45.90;;;;;;5004545;28;20464;-70
2022/05/05 13:27:29;;;;;;;22.60;20.83;;;29.50;45.20;;;;;;5004674;28;20483;-70
2022/05/05 13:29:56;;;;;;;22.67;20.97;;;29.60;44.60;;;;;;5003528;28;20904;-69